sensor_id;sensor_type;location;lat;lon;timestamp;temperature;humidity
8420;DHT22;4247;48.550;8.822;2024-01-07T00:01:08;4.80;99.90
8420;DHT22;4247;48.550;8.822;2024-01-07T00:03:35;4.80;99.90
8420;DHT22;4247;48.550;8.822;2024-01-07T00:06:03;4.80;99.90
8420;DHT22;4247;48.550;8.822;2024-01-07T00:08:30;4.80;99.90
8420;DHT22;4247;48.550;8.822;2024-01-07T00:10:57;4.80;99.90
8420;DHT22;4247;48.550;8.822;2024-01-07T00:13:23;4.80;99.90
8420;DHT22;4247;48.550;8.822;2024-01-07T00:15:50;4.80;99.90
8420;DHT22;4247;48.550;8.822;2024-01-07T00:18:19;4.80;99.90
8420;DHT22;4247;48.550;8.822;2024-01-07T00:20:45;4.80;99.90
8420;DHT22;4247;48.550;8.822;2024-01-07T00:23:13;4.80;99.90
8420;DHT22;4247;48.550;8.822;2024-01-07T00:25:40;4.80;99.90
8420;DHT22;4247;48.550;8.822;2024-01-07T00:28:07;4.80;99.90
8420;DHT22;4247;48.550;8.822;2024-01-07T00:30:34;4.80;99.90
8420;DHT22;4247;48.550;8.822;2024-01-07T00:33:00;4.80;99.90
8420;DHT22;4247;48.550;8.822;2024-01-07T00:35:27;4.80;99.90
8420;DHT22;4247;48.550;8.822;2024-01-07T00:37:54;4.80;99.90
8420;DHT22;4247;48.550;8.822;2024-01-07T00:40:23;4.80;99.90
8420;DHT22;4247;48.550;8.822;2024-01-07T00:42:50;4.80;99.90
8420;DHT22;4247;48.550;8.822;2024-01-07T00:45:17;4.80;99.90
8420;DHT22;4247;48.550;8.822;2024-01-07T00:47:44;4.80;99.90
8420;DHT22;4247;48.550;8.822;2024-01-07T00:50:11;4.80;99.90
8420;DHT22;4247;48.550;8.822;2024-01-07T00:52:37;4.80;99.90
8420;DHT22;4247;48.550;8.822;2024-01-07T00:55:05;4.90;99.90
8420;DHT22;4247;48.550;8.822;2024-01-07T00:57:33;4.80;99.90
8420;DHT22;4247;48.550;8.822;2024-01-07T01:00:04;4.80;99.90
8420;DHT22;4247;48.550;8.822;2024-01-07T01:02:32;4.80;99.90
8420;DHT22;4247;48.550;8.822;2024-01-07T01:04:58;4.80;99.90
8420;DHT22;4247;48.550;8.822;2024-01-07T01:07:25;4.70;99.90
8420;DHT22;4247;48.550;8.822;2024-01-07T01:09:52;4.80;99.90
8420;DHT22;4247;48.550;8.822;2024-01-07T01:12:18;4.70;99.90
8420;DHT22;4247;48.550;8.822;2024-01-07T01:14:46;4.70;99.90
8420;DHT22;4247;48.550;8.822;2024-01-07T01:17:13;4.70;99.90
8420;DHT22;4247;48.550;8.822;2024-01-07T01:19:40;4.70;99.90
8420;DHT22;4247;48.550;8.822;2024-01-07T01:22:06;4.70;99.90
8420;DHT22;4247;48.550;8.822;2024-01-07T01:24:33;4.70;99.90
8420;DHT22;4247;48.550;8.822;2024-01-07T01:27:00;4.70;99.90
8420;DHT22;4247;48.550;8.822;2024-01-07T01:29:26;4.70;99.90
8420;DHT22;4247;48.550;8.822;2024-01-07T01:31:54;4.60;99.90
8420;DHT22;4247;48.550;8.822;2024-01-07T01:34:21;4.60;99.90
8420;DHT22;4247;48.550;8.822;2024-01-07T01:36:48;4.60;99.90
8420;DHT22;4247;48.550;8.822;2024-01-07T01:39:15;4.50;99.90
8420;DHT22;4247;48.550;8.822;2024-01-07T01:41:42;4.60;99.90
8420;DHT22;4247;48.550;8.822;2024-01-07T01:44:08;4.50;99.90
8420;DHT22;4247;48.550;8.822;2024-01-07T01:46:35;4.50;99.90
8420;DHT22;4247;48.550;8.822;2024-01-07T01:49:03;4.50;99.90
8420;DHT22;4247;48.550;8.822;2024-01-07T01:51:30;4.50;99.90
8420;DHT22;4247;48.550;8.822;2024-01-07T01:53:58;4.50;99.90
8420;DHT22;4247;48.550;8.822;2024-01-07T01:56:27;4.50;99.90
8420;DHT22;4247;48.550;8.822;2024-01-07T01:58:54;4.40;99.90
8420;DHT22;4247;48.550;8.822;2024-01-07T02:01:22;4.40;99.90
8420;DHT22;4247;48.550;8.822;2024-01-07T02:03:49;4.40;99.90
8420;DHT22;4247;48.550;8.822;2024-01-07T02:06:18;4.40;99.90
8420;DHT22;4247;48.550;8.822;2024-01-07T02:08:45;4.40;99.90
8420;DHT22;4247;48.550;8.822;2024-01-07T02:11:16;4.40;99.90
8420;DHT22;4247;48.550;8.822;2024-01-07T02:13:43;4.40;99.90
8420;DHT22;4247;48.550;8.822;2024-01-07T02:16:10;4.50;99.90
8420;DHT22;4247;48.550;8.822;2024-01-07T02:18:38;4.50;99.90
8420;DHT22;4247;48.550;8.822;2024-01-07T02:21:07;4.40;99.90
8420;DHT22;4247;48.550;8.822;2024-01-07T02:23:35;4.40;99.90
8420;DHT22;4247;48.550;8.822;2024-01-07T02:26:03;4.50;99.90
8420;DHT22;4247;48.550;8.822;2024-01-07T02:28:31;4.50;99.90
8420;DHT22;4247;48.550;8.822;2024-01-07T02:30:57;4.50;99.90
8420;DHT22;4247;48.550;8.822;2024-01-07T02:33:24;4.50;99.90
8420;DHT22;4247;48.550;8.822;2024-01-07T02:35:52;4.50;99.90
8420;DHT22;4247;48.550;8.822;2024-01-07T02:38:19;4.40;99.90
8420;DHT22;4247;48.550;8.822;2024-01-07T02:40:45;4.40;99.90
8420;DHT22;4247;48.550;8.822;2024-01-07T02:43:13;4.50;99.90
8420;DHT22;4247;48.550;8.822;2024-01-07T02:45:40;4.50;99.90
8420;DHT22;4247;48.550;8.822;2024-01-07T02:48:07;4.50;99.90
8420;DHT22;4247;48.550;8.822;2024-01-07T02:50:34;4.40;99.90
8420;DHT22;4247;48.550;8.822;2024-01-07T02:53:00;4.40;99.90
8420;DHT22;4247;48.550;8.822;2024-01-07T02:55:27;4.50;99.90
8420;DHT22;4247;48.550;8.822;2024-01-07T02:57:54;4.40;99.90
8420;DHT22;4247;48.550;8.822;2024-01-07T03:00:22;4.40;99.90
8420;DHT22;4247;48.550;8.822;2024-01-07T03:02:48;4.40;99.90
8420;DHT22;4247;48.550;8.822;2024-01-07T03:05:15;4.40;99.90
8420;DHT22;4247;48.550;8.822;2024-01-07T03:07:42;4.40;99.90
8420;DHT22;4247;48.550;8.822;2024-01-07T03:10:08;4.40;99.90
8420;DHT22;4247;48.550;8.822;2024-01-07T03:12:35;4.40;99.90
8420;DHT22;4247;48.550;8.822;2024-01-07T03:15:02;4.40;99.90
8420;DHT22;4247;48.550;8.822;2024-01-07T03:17:31;4.30;99.90
8420;DHT22;4247;48.550;8.822;2024-01-07T03:19:57;4.30;99.90
8420;DHT22;4247;48.550;8.822;2024-01-07T03:22:24;4.40;99.90
8420;DHT22;4247;48.550;8.822;2024-01-07T03:24:51;4.30;99.90
8420;DHT22;4247;48.550;8.822;2024-01-07T03:27:17;4.30;99.90
8420;DHT22;4247;48.550;8.822;2024-01-07T03:29:44;4.20;99.90
8420;DHT22;4247;48.550;8.822;2024-01-07T03:32:11;4.20;99.90
8420;DHT22;4247;48.550;8.822;2024-01-07T03:34:39;4.20;99.90
8420;DHT22;4247;48.550;8.822;2024-01-07T03:37:06;4.20;99.90
8420;DHT22;4247;48.550;8.822;2024-01-07T03:39:33;4.20;99.90
8420;DHT22;4247;48.550;8.822;2024-01-07T03:42:00;4.20;99.90
8420;DHT22;4247;48.550;8.822;2024-01-07T03:44:26;4.20;99.90
8420;DHT22;4247;48.550;8.822;2024-01-07T03:46:53;4.20;99.90
8420;DHT22;4247;48.550;8.822;2024-01-07T03:49:20;4.20;99.90
8420;DHT22;4247;48.550;8.822;2024-01-07T03:51:48;4.10;99.90
8420;DHT22;4247;48.550;8.822;2024-01-07T03:54:14;4.20;99.90
8420;DHT22;4247;48.550;8.822;2024-01-07T03:56:41;4.10;99.90
8420;DHT22;4247;48.550;8.822;2024-01-07T03:59:07;4.10;99.90
8420;DHT22;4247;48.550;8.822;2024-01-07T04:01:34;4.00;99.90
8420;DHT22;4247;48.550;8.822;2024-01-07T04:04:01;4.00;99.90
8420;DHT22;4247;48.550;8.822;2024-01-07T04:06:28;4.00;99.90
8420;DHT22;4247;48.550;8.822;2024-01-07T04:08:56;4.00;99.90
8420;DHT22;4247;48.550;8.822;2024-01-07T04:11:22;4.00;99.90
8420;DHT22;4247;48.550;8.822;2024-01-07T04:13:49;4.00;99.90
8420;DHT22;4247;48.550;8.822;2024-01-07T04:16:16;4.00;99.90
8420;DHT22;4247;48.550;8.822;2024-01-07T04:18:43;4.10;99.90
8420;DHT22;4247;48.550;8.822;2024-01-07T04:21:11;4.00;99.90
8420;DHT22;4247;48.550;8.822;2024-01-07T04:23:38;4.10;99.90
8420;DHT22;4247;48.550;8.822;2024-01-07T04:26:07;4.00;99.90
8420;DHT22;4247;48.550;8.822;2024-01-07T04:28:33;4.00;99.90
8420;DHT22;4247;48.550;8.822;2024-01-07T04:31:00;4.00;99.90
8420;DHT22;4247;48.550;8.822;2024-01-07T04:33:27;4.00;99.90
8420;DHT22;4247;48.550;8.822;2024-01-07T04:35:53;4.10;99.90
8420;DHT22;4247;48.550;8.822;2024-01-07T04:38:23;4.10;99.90
8420;DHT22;4247;48.550;8.822;2024-01-07T04:40:50;4.10;99.90
8420;DHT22;4247;48.550;8.822;2024-01-07T04:43:18;4.00;99.90
8420;DHT22;4247;48.550;8.822;2024-01-07T04:45:45;4.00;99.90
8420;DHT22;4247;48.550;8.822;2024-01-07T04:48:11;4.00;99.90
8420;DHT22;4247;48.550;8.822;2024-01-07T04:50:39;4.00;99.90
8420;DHT22;4247;48.550;8.822;2024-01-07T04:53:06;4.00;99.90
8420;DHT22;4247;48.550;8.822;2024-01-07T04:55:32;4.10;99.90
8420;DHT22;4247;48.550;8.822;2024-01-07T04:57:59;4.00;99.90
8420;DHT22;4247;48.550;8.822;2024-01-07T05:00:28;4.00;99.90
8420;DHT22;4247;48.550;8.822;2024-01-07T05:02:54;4.10;99.90
8420;DHT22;4247;48.550;8.822;2024-01-07T05:05:21;4.00;99.90
8420;DHT22;4247;48.550;8.822;2024-01-07T05:07:48;4.10;99.90
8420;DHT22;4247;48.550;8.822;2024-01-07T05:10:14;4.00;99.90
8420;DHT22;4247;48.550;8.822;2024-01-07T05:12:41;4.00;99.90
8420;DHT22;4247;48.550;8.822;2024-01-07T05:15:08;4.10;99.90
8420;DHT22;4247;48.550;8.822;2024-01-07T05:17:37;4.10;99.90
8420;DHT22;4247;48.550;8.822;2024-01-07T05:20:04;4.10;99.90
8420;DHT22;4247;48.550;8.822;2024-01-07T05:22:32;4.10;99.90
8420;DHT22;4247;48.550;8.822;2024-01-07T05:24:58;4.10;99.90
8420;DHT22;4247;48.550;8.822;2024-01-07T05:27:25;4.00;99.90
8420;DHT22;4247;48.550;8.822;2024-01-07T05:29:52;4.00;99.90
8420;DHT22;4247;48.550;8.822;2024-01-07T05:32:20;4.00;99.90
8420;DHT22;4247;48.550;8.822;2024-01-07T05:34:48;4.00;99.90
8420;DHT22;4247;48.550;8.822;2024-01-07T05:37:15;4.00;99.90
8420;DHT22;4247;48.550;8.822;2024-01-07T05:39:42;4.00;99.90
8420;DHT22;4247;48.550;8.822;2024-01-07T05:42:09;4.10;99.90
8420;DHT22;4247;48.550;8.822;2024-01-07T05:44:36;4.10;99.90
8420;DHT22;4247;48.550;8.822;2024-01-07T05:47:03;4.00;99.90
8420;DHT22;4247;48.550;8.822;2024-01-07T05:49:30;4.00;99.90
8420;DHT22;4247;48.550;8.822;2024-01-07T05:51:58;4.00;99.90
8420;DHT22;4247;48.550;8.822;2024-01-07T05:54:24;4.00;99.90
8420;DHT22;4247;48.550;8.822;2024-01-07T05:56:51;4.00;99.90
8420;DHT22;4247;48.550;8.822;2024-01-07T05:59:18;4.00;99.90
8420;DHT22;4247;48.550;8.822;2024-01-07T06:01:45;4.00;99.90
8420;DHT22;4247;48.550;8.822;2024-01-07T06:04:12;4.00;99.90
8420;DHT22;4247;48.550;8.822;2024-01-07T06:06:38;3.90;99.90
8420;DHT22;4247;48.550;8.822;2024-01-07T06:09:06;3.90;99.90
8420;DHT22;4247;48.550;8.822;2024-01-07T06:11:33;3.90;99.90
8420;DHT22;4247;48.550;8.822;2024-01-07T06:14:00;3.90;99.90
8420;DHT22;4247;48.550;8.822;2024-01-07T06:16:26;3.90;99.90
8420;DHT22;4247;48.550;8.822;2024-01-07T06:18:53;3.90;99.90
8420;DHT22;4247;48.550;8.822;2024-01-07T06:21:20;3.80;99.90
8420;DHT22;4247;48.550;8.822;2024-01-07T06:23:46;3.80;99.90
8420;DHT22;4247;48.550;8.822;2024-01-07T06:26:15;3.80;99.90
8420;DHT22;4247;48.550;8.822;2024-01-07T06:28:41;3.80;99.90
8420;DHT22;4247;48.550;8.822;2024-01-07T06:31:08;3.80;99.90
8420;DHT22;4247;48.550;8.822;2024-01-07T06:33:35;3.80;99.90
8420;DHT22;4247;48.550;8.822;2024-01-07T06:36:01;3.80;99.90
8420;DHT22;4247;48.550;8.822;2024-01-07T06:38:28;3.80;99.90
8420;DHT22;4247;48.550;8.822;2024-01-07T06:40:55;3.80;99.90
8420;DHT22;4247;48.550;8.822;2024-01-07T06:43:27;3.80;99.90
8420;DHT22;4247;48.550;8.822;2024-01-07T06:45:54;3.70;99.90
8420;DHT22;4247;48.550;8.822;2024-01-07T06:48:21;3.70;99.90
8420;DHT22;4247;48.550;8.822;2024-01-07T06:50:48;3.70;99.90
8420;DHT22;4247;48.550;8.822;2024-01-07T06:53:14;3.60;99.90
8420;DHT22;4247;48.550;8.822;2024-01-07T06:55:42;3.60;99.90
8420;DHT22;4247;48.550;8.822;2024-01-07T06:58:08;3.60;99.90
8420;DHT22;4247;48.550;8.822;2024-01-07T07:00:36;3.60;99.90
8420;DHT22;4247;48.550;8.822;2024-01-07T07:03:03;3.60;99.90
8420;DHT22;4247;48.550;8.822;2024-01-07T07:05:30;3.60;99.90
8420;DHT22;4247;48.550;8.822;2024-01-07T07:07:57;3.60;99.90
8420;DHT22;4247;48.550;8.822;2024-01-07T07:10:24;3.60;99.90
8420;DHT22;4247;48.550;8.822;2024-01-07T07:12:51;3.60;99.90
8420;DHT22;4247;48.550;8.822;2024-01-07T07:15:17;3.60;99.90
8420;DHT22;4247;48.550;8.822;2024-01-07T07:17:46;3.60;99.90
8420;DHT22;4247;48.550;8.822;2024-01-07T07:20:13;3.60;99.90
8420;DHT22;4247;48.550;8.822;2024-01-07T07:22:39;3.60;99.90
8420;DHT22;4247;48.550;8.822;2024-01-07T07:25:07;3.50;99.90
8420;DHT22;4247;48.550;8.822;2024-01-07T07:27:33;3.50;99.90
8420;DHT22;4247;48.550;8.822;2024-01-07T07:30:00;3.50;99.90
8420;DHT22;4247;48.550;8.822;2024-01-07T07:32:27;3.50;99.90
8420;DHT22;4247;48.550;8.822;2024-01-07T07:34:55;3.50;99.90
8420;DHT22;4247;48.550;8.822;2024-01-07T07:37:21;3.50;99.90
8420;DHT22;4247;48.550;8.822;2024-01-07T07:39:48;3.50;99.90
8420;DHT22;4247;48.550;8.822;2024-01-07T07:42:15;3.50;99.90
8420;DHT22;4247;48.550;8.822;2024-01-07T07:44:42;3.50;99.90
8420;DHT22;4247;48.550;8.822;2024-01-07T07:47:09;3.50;99.90
8420;DHT22;4247;48.550;8.822;2024-01-07T07:49:37;3.40;99.90
8420;DHT22;4247;48.550;8.822;2024-01-07T07:52:07;3.40;99.90
8420;DHT22;4247;48.550;8.822;2024-01-07T07:54:34;3.40;99.90
8420;DHT22;4247;48.550;8.822;2024-01-07T07:57:01;3.40;99.90
8420;DHT22;4247;48.550;8.822;2024-01-07T07:59:28;3.40;99.90
8420;DHT22;4247;48.550;8.822;2024-01-07T08:01:54;3.40;99.90
8420;DHT22;4247;48.550;8.822;2024-01-07T08:04:21;3.40;99.90
8420;DHT22;4247;48.550;8.822;2024-01-07T08:06:48;3.40;99.90
8420;DHT22;4247;48.550;8.822;2024-01-07T08:09:16;3.40;99.90
8420;DHT22;4247;48.550;8.822;2024-01-07T08:11:43;3.40;99.90
8420;DHT22;4247;48.550;8.822;2024-01-07T08:14:09;3.40;99.90
8420;DHT22;4247;48.550;8.822;2024-01-07T08:16:36;3.40;99.90
8420;DHT22;4247;48.550;8.822;2024-01-07T08:19:03;3.40;99.90
8420;DHT22;4247;48.550;8.822;2024-01-07T08:21:29;3.40;99.90
8420;DHT22;4247;48.550;8.822;2024-01-07T08:23:56;3.40;99.90
8420;DHT22;4247;48.550;8.822;2024-01-07T08:26:24;3.30;99.90
8420;DHT22;4247;48.550;8.822;2024-01-07T08:28:51;3.40;99.90
8420;DHT22;4247;48.550;8.822;2024-01-07T08:31:18;3.30;99.90
8420;DHT22;4247;48.550;8.822;2024-01-07T08:33:44;3.40;99.90
8420;DHT22;4247;48.550;8.822;2024-01-07T08:36:11;3.40;99.90
8420;DHT22;4247;48.550;8.822;2024-01-07T08:38:38;3.40;99.90
8420;DHT22;4247;48.550;8.822;2024-01-07T08:41:05;3.40;99.90
8420;DHT22;4247;48.550;8.822;2024-01-07T08:43:33;3.40;99.90
8420;DHT22;4247;48.550;8.822;2024-01-07T08:45:59;3.30;99.90
8420;DHT22;4247;48.550;8.822;2024-01-07T08:48:26;3.30;99.90
8420;DHT22;4247;48.550;8.822;2024-01-07T08:50:52;3.40;99.90
8420;DHT22;4247;48.550;8.822;2024-01-07T08:53:19;3.30;99.90
8420;DHT22;4247;48.550;8.822;2024-01-07T08:55:47;3.30;99.90
8420;DHT22;4247;48.550;8.822;2024-01-07T08:58:16;3.20;99.90
8420;DHT22;4247;48.550;8.822;2024-01-07T09:00:44;3.30;99.90
8420;DHT22;4247;48.550;8.822;2024-01-07T09:03:11;3.30;99.90
8420;DHT22;4247;48.550;8.822;2024-01-07T09:05:37;3.20;99.90
8420;DHT22;4247;48.550;8.822;2024-01-07T09:08:05;3.30;99.90
8420;DHT22;4247;48.550;8.822;2024-01-07T09:10:32;3.30;99.90
8420;DHT22;4247;48.550;8.822;2024-01-07T09:12:59;3.20;99.90
8420;DHT22;4247;48.550;8.822;2024-01-07T09:15:26;3.20;99.90
8420;DHT22;4247;48.550;8.822;2024-01-07T09:17:54;3.20;99.90
8420;DHT22;4247;48.550;8.822;2024-01-07T09:20:20;3.20;99.90
8420;DHT22;4247;48.550;8.822;2024-01-07T09:22:47;3.30;99.90
8420;DHT22;4247;48.550;8.822;2024-01-07T09:25:14;3.30;99.90
8420;DHT22;4247;48.550;8.822;2024-01-07T09:27:40;3.30;99.90
8420;DHT22;4247;48.550;8.822;2024-01-07T09:30:09;3.30;99.90
8420;DHT22;4247;48.550;8.822;2024-01-07T09:32:39;3.30;99.90
8420;DHT22;4247;48.550;8.822;2024-01-07T09:35:08;3.30;99.90
8420;DHT22;4247;48.550;8.822;2024-01-07T09:37:34;3.30;99.90
8420;DHT22;4247;48.550;8.822;2024-01-07T09:40:02;3.30;99.90
8420;DHT22;4247;48.550;8.822;2024-01-07T09:42:30;3.20;99.90
8420;DHT22;4247;48.550;8.822;2024-01-07T09:44:58;3.30;99.90
8420;DHT22;4247;48.550;8.822;2024-01-07T09:47:27;3.30;99.90
8420;DHT22;4247;48.550;8.822;2024-01-07T09:49:53;3.20;99.90
8420;DHT22;4247;48.550;8.822;2024-01-07T09:52:21;3.20;99.90
8420;DHT22;4247;48.550;8.822;2024-01-07T09:54:51;3.20;99.90
8420;DHT22;4247;48.550;8.822;2024-01-07T09:57:18;3.20;99.90
8420;DHT22;4247;48.550;8.822;2024-01-07T09:59:46;3.30;99.90
8420;DHT22;4247;48.550;8.822;2024-01-07T10:02:13;3.30;99.90
8420;DHT22;4247;48.550;8.822;2024-01-07T10:04:41;3.30;99.90
8420;DHT22;4247;48.550;8.822;2024-01-07T10:07:08;3.40;99.90
8420;DHT22;4247;48.550;8.822;2024-01-07T10:09:36;3.30;99.90
8420;DHT22;4247;48.550;8.822;2024-01-07T10:12:03;3.40;99.90
8420;DHT22;4247;48.550;8.822;2024-01-07T10:14:30;3.40;99.90
8420;DHT22;4247;48.550;8.822;2024-01-07T10:16:57;3.50;99.90
8420;DHT22;4247;48.550;8.822;2024-01-07T10:19:24;3.50;99.90
8420;DHT22;4247;48.550;8.822;2024-01-07T10:22:01;3.50;99.90
8420;DHT22;4247;48.550;8.822;2024-01-07T10:24:36;3.50;99.90
8420;DHT22;4247;48.550;8.822;2024-01-07T10:27:07;3.40;99.90
8420;DHT22;4247;48.550;8.822;2024-01-07T10:29:34;3.40;99.90
8420;DHT22;4247;48.550;8.822;2024-01-07T10:32:01;3.30;99.90
8420;DHT22;4247;48.550;8.822;2024-01-07T10:34:31;3.20;99.90
8420;DHT22;4247;48.550;8.822;2024-01-07T10:36:59;3.20;99.90
8420;DHT22;4247;48.550;8.822;2024-01-07T10:39:26;3.20;99.90
8420;DHT22;4247;48.550;8.822;2024-01-07T10:41:54;3.20;99.90
8420;DHT22;4247;48.550;8.822;2024-01-07T10:44:24;3.20;99.90
8420;DHT22;4247;48.550;8.822;2024-01-07T10:46:53;3.20;99.90
8420;DHT22;4247;48.550;8.822;2024-01-07T10:49:21;3.10;99.90
8420;DHT22;4247;48.550;8.822;2024-01-07T10:51:55;3.20;99.90
8420;DHT22;4247;48.550;8.822;2024-01-07T10:54:24;3.20;99.90
8420;DHT22;4247;48.550;8.822;2024-01-07T10:56:59;3.10;99.90
8420;DHT22;4247;48.550;8.822;2024-01-07T10:59:26;3.10;99.90
8420;DHT22;4247;48.550;8.822;2024-01-07T11:01:53;3.10;99.90
8420;DHT22;4247;48.550;8.822;2024-01-07T11:04:23;3.10;99.90
8420;DHT22;4247;48.550;8.822;2024-01-07T11:06:57;3.00;99.90
8420;DHT22;4247;48.550;8.822;2024-01-07T11:09:30;3.00;99.90
8420;DHT22;4247;48.550;8.822;2024-01-07T11:12:00;2.90;99.90
8420;DHT22;4247;48.550;8.822;2024-01-07T11:14:38;2.90;99.90
8420;DHT22;4247;48.550;8.822;2024-01-07T11:17:05;2.90;99.90
8420;DHT22;4247;48.550;8.822;2024-01-07T11:19:32;2.80;99.90
8420;DHT22;4247;48.550;8.822;2024-01-07T11:22:21;2.80;99.90
8420;DHT22;4247;48.550;8.822;2024-01-07T11:24:50;2.80;99.90
8420;DHT22;4247;48.550;8.822;2024-01-07T11:27:19;2.80;99.90
8420;DHT22;4247;48.550;8.822;2024-01-07T11:29:53;2.80;99.90
8420;DHT22;4247;48.550;8.822;2024-01-07T11:32:22;2.80;99.90
8420;DHT22;4247;48.550;8.822;2024-01-07T11:34:49;2.70;99.90
8420;DHT22;4247;48.550;8.822;2024-01-07T11:37:18;2.70;99.90
8420;DHT22;4247;48.550;8.822;2024-01-07T11:39:46;2.60;99.90
8420;DHT22;4247;48.550;8.822;2024-01-07T11:42:14;2.60;99.90
8420;DHT22;4247;48.550;8.822;2024-01-07T11:44:47;2.50;99.90
8420;DHT22;4247;48.550;8.822;2024-01-07T11:47:15;2.50;99.90
8420;DHT22;4247;48.550;8.822;2024-01-07T11:49:42;2.50;99.90
8420;DHT22;4247;48.550;8.822;2024-01-07T11:52:08;2.50;99.90
8420;DHT22;4247;48.550;8.822;2024-01-07T11:54:36;2.50;99.90
8420;DHT22;4247;48.550;8.822;2024-01-07T11:57:04;2.50;99.90
8420;DHT22;4247;48.550;8.822;2024-01-07T11:59:30;2.40;99.90
8420;DHT22;4247;48.550;8.822;2024-01-07T12:01:59;2.40;99.90
8420;DHT22;4247;48.550;8.822;2024-01-07T12:04:26;2.40;99.90
8420;DHT22;4247;48.550;8.822;2024-01-07T12:06:53;2.40;99.90
8420;DHT22;4247;48.550;8.822;2024-01-07T12:09:20;2.40;99.90
8420;DHT22;4247;48.550;8.822;2024-01-07T12:11:47;2.40;99.90
8420;DHT22;4247;48.550;8.822;2024-01-07T12:14:14;2.40;99.90
8420;DHT22;4247;48.550;8.822;2024-01-07T12:16:41;2.40;99.90
8420;DHT22;4247;48.550;8.822;2024-01-07T12:19:09;2.40;99.90
8420;DHT22;4247;48.550;8.822;2024-01-07T12:21:36;2.40;99.90
8420;DHT22;4247;48.550;8.822;2024-01-07T12:24:03;2.40;99.90
8420;DHT22;4247;48.550;8.822;2024-01-07T12:26:31;2.50;99.90
8420;DHT22;4247;48.550;8.822;2024-01-07T12:28:59;2.50;99.90
8420;DHT22;4247;48.550;8.822;2024-01-07T12:31:29;2.50;99.90
8420;DHT22;4247;48.550;8.822;2024-01-07T12:33:56;2.50;99.90
8420;DHT22;4247;48.550;8.822;2024-01-07T12:36:25;2.40;99.90
8420;DHT22;4247;48.550;8.822;2024-01-07T12:38:53;2.40;99.90
8420;DHT22;4247;48.550;8.822;2024-01-07T12:41:20;2.30;99.90
8420;DHT22;4247;48.550;8.822;2024-01-07T12:43:47;2.30;99.90
8420;DHT22;4247;48.550;8.822;2024-01-07T12:46:15;2.30;99.90
8420;DHT22;4247;48.550;8.822;2024-01-07T12:48:41;2.40;99.90
8420;DHT22;4247;48.550;8.822;2024-01-07T12:51:08;2.40;99.90
8420;DHT22;4247;48.550;8.822;2024-01-07T12:53:36;2.30;99.90
8420;DHT22;4247;48.550;8.822;2024-01-07T12:56:04;2.30;99.90
8420;DHT22;4247;48.550;8.822;2024-01-07T12:58:30;2.30;99.90
8420;DHT22;4247;48.550;8.822;2024-01-07T13:00:58;2.30;99.90
8420;DHT22;4247;48.550;8.822;2024-01-07T13:03:25;2.30;99.90
8420;DHT22;4247;48.550;8.822;2024-01-07T13:05:51;2.20;99.90
8420;DHT22;4247;48.550;8.822;2024-01-07T13:08:18;2.20;99.90
8420;DHT22;4247;48.550;8.822;2024-01-07T13:10:48;2.10;99.90
8420;DHT22;4247;48.550;8.822;2024-01-07T13:13:15;2.10;99.90
8420;DHT22;4247;48.550;8.822;2024-01-07T13:15:43;2.10;99.90
8420;DHT22;4247;48.550;8.822;2024-01-07T13:18:11;2.10;99.90
8420;DHT22;4247;48.550;8.822;2024-01-07T13:20:38;2.10;99.90
8420;DHT22;4247;48.550;8.822;2024-01-07T13:23:06;2.10;99.90
8420;DHT22;4247;48.550;8.822;2024-01-07T13:25:32;2.10;99.90
8420;DHT22;4247;48.550;8.822;2024-01-07T13:28:00;2.00;99.90
8420;DHT22;4247;48.550;8.822;2024-01-07T13:30:27;2.00;99.90
8420;DHT22;4247;48.550;8.822;2024-01-07T13:32:54;2.00;99.90
8420;DHT22;4247;48.550;8.822;2024-01-07T13:35:22;2.00;99.90
8420;DHT22;4247;48.550;8.822;2024-01-07T13:37:49;1.90;99.90
8420;DHT22;4247;48.550;8.822;2024-01-07T13:40:17;1.80;99.90
8420;DHT22;4247;48.550;8.822;2024-01-07T13:42:44;1.90;99.90
8420;DHT22;4247;48.550;8.822;2024-01-07T13:45:12;1.90;99.90
8420;DHT22;4247;48.550;8.822;2024-01-07T13:47:39;1.90;99.90
8420;DHT22;4247;48.550;8.822;2024-01-07T13:50:07;1.80;99.90
8420;DHT22;4247;48.550;8.822;2024-01-07T13:52:35;1.90;99.90
8420;DHT22;4247;48.550;8.822;2024-01-07T13:55:01;1.90;99.90
8420;DHT22;4247;48.550;8.822;2024-01-07T13:57:28;1.80;99.90
8420;DHT22;4247;48.550;8.822;2024-01-07T13:59:56;1.80;99.90
8420;DHT22;4247;48.550;8.822;2024-01-07T14:02:24;1.90;99.90
8420;DHT22;4247;48.550;8.822;2024-01-07T14:04:50;1.80;99.90
8420;DHT22;4247;48.550;8.822;2024-01-07T14:07:17;1.80;99.90
8420;DHT22;4247;48.550;8.822;2024-01-07T14:09:44;1.80;99.90
8420;DHT22;4247;48.550;8.822;2024-01-07T14:12:11;1.70;99.90
8420;DHT22;4247;48.550;8.822;2024-01-07T14:14:38;1.70;99.90
8420;DHT22;4247;48.550;8.822;2024-01-07T14:17:05;1.60;99.90
8420;DHT22;4247;48.550;8.822;2024-01-07T14:19:33;1.50;99.90
8420;DHT22;4247;48.550;8.822;2024-01-07T14:22:00;1.50;99.90
8420;DHT22;4247;48.550;8.822;2024-01-07T14:24:27;1.50;99.90
8420;DHT22;4247;48.550;8.822;2024-01-07T14:26:53;1.40;99.90
8420;DHT22;4247;48.550;8.822;2024-01-07T14:29:20;1.30;99.90
8420;DHT22;4247;48.550;8.822;2024-01-07T14:31:47;1.30;99.90
8420;DHT22;4247;48.550;8.822;2024-01-07T14:34:15;1.30;99.90
8420;DHT22;4247;48.550;8.822;2024-01-07T14:36:43;1.40;99.90
8420;DHT22;4247;48.550;8.822;2024-01-07T14:39:09;1.30;99.90
8420;DHT22;4247;48.550;8.822;2024-01-07T14:41:38;1.30;99.90
8420;DHT22;4247;48.550;8.822;2024-01-07T14:44:05;1.30;99.90
8420;DHT22;4247;48.550;8.822;2024-01-07T14:46:32;1.30;99.90
8420;DHT22;4247;48.550;8.822;2024-01-07T14:48:58;1.20;99.90
8420;DHT22;4247;48.550;8.822;2024-01-07T14:51:25;1.10;99.90
8420;DHT22;4247;48.550;8.822;2024-01-07T14:53:53;1.10;99.90
8420;DHT22;4247;48.550;8.822;2024-01-07T14:56:21;1.10;99.90
8420;DHT22;4247;48.550;8.822;2024-01-07T14:58:48;1.10;99.90
8420;DHT22;4247;48.550;8.822;2024-01-07T15:01:16;1.10;99.90
8420;DHT22;4247;48.550;8.822;2024-01-07T15:03:44;1.00;99.90
8420;DHT22;4247;48.550;8.822;2024-01-07T15:06:10;1.00;99.90
8420;DHT22;4247;48.550;8.822;2024-01-07T15:08:40;1.10;99.90
8420;DHT22;4247;48.550;8.822;2024-01-07T15:11:09;1.00;99.90
8420;DHT22;4247;48.550;8.822;2024-01-07T15:13:35;1.10;99.90
8420;DHT22;4247;48.550;8.822;2024-01-07T15:16:05;1.00;99.90
8420;DHT22;4247;48.550;8.822;2024-01-07T15:18:32;0.90;99.90
8420;DHT22;4247;48.550;8.822;2024-01-07T15:20:58;0.90;99.90
8420;DHT22;4247;48.550;8.822;2024-01-07T15:23:25;0.90;99.90
8420;DHT22;4247;48.550;8.822;2024-01-07T15:25:52;0.80;99.90
8420;DHT22;4247;48.550;8.822;2024-01-07T15:28:20;0.80;99.90
8420;DHT22;4247;48.550;8.822;2024-01-07T15:30:47;0.80;99.90
8420;DHT22;4247;48.550;8.822;2024-01-07T15:33:14;0.80;99.90
8420;DHT22;4247;48.550;8.822;2024-01-07T15:35:40;0.80;99.90
8420;DHT22;4247;48.550;8.822;2024-01-07T15:38:07;0.80;99.90
8420;DHT22;4247;48.550;8.822;2024-01-07T15:40:34;0.80;99.90
8420;DHT22;4247;48.550;8.822;2024-01-07T15:43:00;0.80;99.90
8420;DHT22;4247;48.550;8.822;2024-01-07T15:45:28;0.70;99.90
8420;DHT22;4247;48.550;8.822;2024-01-07T15:47:55;0.70;99.90
8420;DHT22;4247;48.550;8.822;2024-01-07T15:50:22;0.70;99.90
8420;DHT22;4247;48.550;8.822;2024-01-07T15:52:49;0.70;99.90
8420;DHT22;4247;48.550;8.822;2024-01-07T15:55:15;0.70;99.90
8420;DHT22;4247;48.550;8.822;2024-01-07T15:57:43;0.60;99.90
8420;DHT22;4247;48.550;8.822;2024-01-07T16:00:11;0.60;99.90
8420;DHT22;4247;48.550;8.822;2024-01-07T16:02:39;0.60;99.90
8420;DHT22;4247;48.550;8.822;2024-01-07T16:05:07;0.50;99.90
8420;DHT22;4247;48.550;8.822;2024-01-07T16:07:33;0.50;99.90
8420;DHT22;4247;48.550;8.822;2024-01-07T16:10:00;0.50;99.90
8420;DHT22;4247;48.550;8.822;2024-01-07T16:12:27;0.50;99.90
8420;DHT22;4247;48.550;8.822;2024-01-07T16:14:56;0.50;99.90
8420;DHT22;4247;48.550;8.822;2024-01-07T16:17:22;0.50;99.90